sensor_id;sensor_type;location;lat;lon;timestamp;pressure;altitude;pressure_sealevel;temperature;humidity
5609;BME280;2826;51.354;9.588;2023-01-25T00:00:01;100036.63;;;1.51;90.42
5609;BME280;2826;51.354;9.588;2023-01-25T00:02:30;100044.31;;;1.51;90.50
5609;BME280;2826;51.354;9.588;2023-01-25T00:04:56;100043.53;;;1.53;90.19
5609;BME280;2826;51.354;9.588;2023-01-25T00:07:24;100041.78;;;1.52;90.28
5609;BME280;2826;51.354;9.588;2023-01-25T00:09:51;100038.41;;;1.53;90.35
5609;BME280;2826;51.354;9.588;2023-01-25T00:12:17;100039.25;;;1.52;90.33
5609;BME280;2826;51.354;9.588;2023-01-25T00:14:44;100035.84;;;1.53;90.23
5609;BME280;2826;51.354;9.588;2023-01-25T00:17:10;100035.84;;;1.53;90.26
5609;BME280;2826;51.354;9.588;2023-01-25T00:19:37;100035.00;;;1.53;89.97
5609;BME280;2826;51.354;9.588;2023-01-25T00:22:04;100019.38;;;1.42;90.29
5609;BME280;2826;51.354;9.588;2023-01-25T00:24:32;100036.63;;;1.51;90.38
5609;BME280;2826;51.354;9.588;2023-01-25T00:26:58;100039.88;;;1.45;90.52
5609;BME280;2826;51.354;9.588;2023-01-25T00:29:25;100039.00;;;1.43;90.35
5609;BME280;2826;51.354;9.588;2023-01-25T00:32:02;100032.16;;;1.42;90.71
5609;BME280;2826;51.354;9.588;2023-01-25T00:34:44;100031.22;;;1.40;90.66
5609;BME280;2826;51.354;9.588;2023-01-25T00:37:13;100029.59;;;1.42;90.69
5609;BME280;2826;51.354;9.588;2023-01-25T00:39:45;100030.53;;;1.46;90.85
5609;BME280;2826;51.354;9.588;2023-01-25T00:42:12;100008.00;;;1.32;90.80
5609;BME280;2826;51.354;9.588;2023-01-25T00:44:39;100025.38;;;1.44;90.84
5609;BME280;2826;51.354;9.588;2023-01-25T00:47:08;100032.19;;;1.43;90.74
5609;BME280;2826;51.354;9.588;2023-01-25T00:49:34;100027.09;;;1.45;90.79
5609;BME280;2826;51.354;9.588;2023-01-25T00:52:02;99980.44;;;1.20;90.86
5609;BME280;2826;51.354;9.588;2023-01-25T00:54:28;100006.66;;;1.45;90.56
5609;BME280;2826;51.354;9.588;2023-01-25T00:56:56;100010.97;;;1.46;90.80
5609;BME280;2826;51.354;9.588;2023-01-25T00:59:24;100010.97;;;1.46;90.63
5609;BME280;2826;51.354;9.588;2023-01-25T01:01:52;100004.88;;;1.42;90.91
5609;BME280;2826;51.354;9.588;2023-01-25T01:04:19;100007.47;;;1.44;90.85
5609;BME280;2826;51.354;9.588;2023-01-25T01:06:50;100009.16;;;1.42;90.71
5609;BME280;2826;51.354;9.588;2023-01-25T01:09:20;100004.91;;;1.44;90.92
5609;BME280;2826;51.354;9.588;2023-01-25T01:11:47;100005.84;;;1.46;90.75
5609;BME280;2826;51.354;9.588;2023-01-25T01:14:18;100004.09;;;1.45;90.92
5609;BME280;2826;51.354;9.588;2023-01-25T01:16:45;99978.22;;;1.33;90.87
5609;BME280;2826;51.354;9.588;2023-01-25T01:19:12;100005.84;;;1.46;90.74
5609;BME280;2826;51.354;9.588;2023-01-25T01:21:39;99998.81;;;1.39;90.61
5609;BME280;2826;51.354;9.588;2023-01-25T01:24:07;100009.94;;;1.41;90.77
5609;BME280;2826;51.354;9.588;2023-01-25T01:26:34;100006.50;;;1.39;90.66
5609;BME280;2826;51.354;9.588;2023-01-25T01:29:01;100008.91;;;1.34;90.64
5609;BME280;2826;51.354;9.588;2023-01-25T01:31:29;100000.41;;;1.34;90.93
5609;BME280;2826;51.354;9.588;2023-01-25T01:34:13;100001.25;;;1.34;90.96
5609;BME280;2826;51.354;9.588;2023-01-25T01:36:40;99999.50;;;1.33;90.81
5609;BME280;2826;51.354;9.588;2023-01-25T01:39:07;100009.84;;;1.36;90.81
5609;BME280;2826;51.354;9.588;2023-01-25T01:41:34;100014.06;;;1.36;90.96
5609;BME280;2826;51.354;9.588;2023-01-25T01:44:01;100005.50;;;1.34;90.91
5609;BME280;2826;51.354;9.588;2023-01-25T01:46:31;100006.34;;;1.33;90.65
5609;BME280;2826;51.354;9.588;2023-01-25T01:49:02;100003.72;;;1.31;90.68
5609;BME280;2826;51.354;9.588;2023-01-25T01:51:38;99998.56;;;1.29;90.65
5609;BME280;2826;51.354;9.588;2023-01-25T01:54:14;100001.19;;;1.31;90.79
5609;BME280;2826;51.354;9.588;2023-01-25T01:56:45;99990.91;;;1.29;90.93
5609;BME280;2826;51.354;9.588;2023-01-25T01:59:14;99992.53;;;1.26;90.63
5609;BME280;2826;51.354;9.588;2023-01-25T02:01:43;99989.13;;;1.27;91.07
5609;BME280;2826;51.354;9.588;2023-01-25T02:04:10;99980.63;;;1.28;90.77
5609;BME280;2826;51.354;9.588;2023-01-25T02:06:43;99987.56;;;1.32;91.02
5609;BME280;2826;51.354;9.588;2023-01-25T02:09:17;99984.97;;;1.30;91.13
5609;BME280;2826;51.354;9.588;2023-01-25T02:11:45;99993.50;;;1.31;90.95
5609;BME280;2826;51.354;9.588;2023-01-25T02:14:13;99993.38;;;1.26;90.95
5609;BME280;2826;51.354;9.588;2023-01-25T02:16:41;99960.56;;;1.10;90.86
5609;BME280;2826;51.354;9.588;2023-01-25T02:19:13;99986.53;;;1.25;91.08
5609;BME280;2826;51.354;9.588;2023-01-25T02:21:44;99990.75;;;1.25;90.86
5609;BME280;2826;51.354;9.588;2023-01-25T02:24:15;99989.91;;;1.24;90.74
5609;BME280;2826;51.354;9.588;2023-01-25T02:26:47;99982.19;;;1.23;90.90
5609;BME280;2826;51.354;9.588;2023-01-25T02:29:15;99983.88;;;1.22;91.01
5609;BME280;2826;51.354;9.588;2023-01-25T02:31:43;99982.25;;;1.24;90.98
5609;BME280;2826;51.354;9.588;2023-01-25T02:34:10;99977.97;;;1.23;91.13
5609;BME280;2826;51.354;9.588;2023-01-25T02:36:39;99976.31;;;1.25;90.73
5609;BME280;2826;51.354;9.588;2023-01-25T02:39:09;99971.94;;;1.21;91.18
5609;BME280;2826;51.354;9.588;2023-01-25T02:41:38;99972.81;;;1.22;91.04
5609;BME280;2826;51.354;9.588;2023-01-25T02:44:09;99972.81;;;1.22;91.18
5609;BME280;2826;51.354;9.588;2023-01-25T02:46:40;99961.72;;;1.21;91.38
5609;BME280;2826;51.354;9.588;2023-01-25T02:49:08;99968.47;;;1.19;91.38
5609;BME280;2826;51.354;9.588;2023-01-25T02:51:37;99962.53;;;1.20;91.26
5609;BME280;2826;51.354;9.588;2023-01-25T02:54:06;99954.91;;;1.22;91.22
5609;BME280;2826;51.354;9.588;2023-01-25T02:56:34;99950.63;;;1.21;91.39
5609;BME280;2826;51.354;9.588;2023-01-25T02:59:01;99953.16;;;1.21;91.12
5609;BME280;2826;51.354;9.588;2023-01-25T03:01:31;99956.56;;;1.20;91.31
5609;BME280;2826;51.354;9.588;2023-01-25T03:03:58;99944.59;;;1.19;91.17
5609;BME280;2826;51.354;9.588;2023-01-25T03:06:25;99947.22;;;1.20;91.52
5609;BME280;2826;51.354;9.588;2023-01-25T03:08:52;99941.06;;;1.13;91.77
5609;BME280;2826;51.354;9.588;2023-01-25T03:11:20;99934.91;;;1.07;91.88
5609;BME280;2826;51.354;9.588;2023-01-25T03:13:47;99929.75;;;1.05;91.85
5609;BME280;2826;51.354;9.588;2023-01-25T03:16:13;99925.69;;;1.12;91.99
5609;BME280;2826;51.354;9.588;2023-01-25T03:18:44;99929.19;;;1.15;91.63
5609;BME280;2826;51.354;9.588;2023-01-25T03:21:14;99882.47;;;0.87;91.48
5609;BME280;2826;51.354;9.588;2023-01-25T03:23:42;99925.78;;;1.15;91.54
5609;BME280;2826;51.354;9.588;2023-01-25T03:26:13;99915.50;;;1.13;91.64
5609;BME280;2826;51.354;9.588;2023-01-25T03:28:55;99907.72;;;1.09;91.38
5609;BME280;2826;51.354;9.588;2023-01-25T03:31:22;99919.19;;;1.23;91.38
5609;BME280;2826;51.354;9.588;2023-01-25T03:33:50;99909.78;;;1.22;91.37
5609;BME280;2826;51.354;9.588;2023-01-25T03:36:19;99915.72;;;1.21;91.17
5609;BME280;2826;51.354;9.588;2023-01-25T03:38:46;99911.44;;;1.20;91.36
5609;BME280;2826;51.354;9.588;2023-01-25T03:41:12;99913.94;;;1.19;91.25
5609;BME280;2826;51.354;9.588;2023-01-25T03:43:39;99910.50;;;1.16;91.45
5609;BME280;2826;51.354;9.588;2023-01-25T03:46:06;99909.63;;;1.16;91.39
5609;BME280;2826;51.354;9.588;2023-01-25T03:48:33;99903.63;;;1.15;91.51
5609;BME280;2826;51.354;9.588;2023-01-25T03:51:01;99906.19;;;1.15;91.41
5609;BME280;2826;51.354;9.588;2023-01-25T03:53:30;99897.63;;;1.13;91.54
5609;BME280;2826;51.354;9.588;2023-01-25T03:56:07;99899.25;;;1.10;91.37
5609;BME280;2826;51.354;9.588;2023-01-25T03:58:36;99895.81;;;1.09;91.47
5609;BME280;2826;51.354;9.588;2023-01-25T04:01:05;99874.22;;;0.98;91.41
5609;BME280;2826;51.354;9.588;2023-01-25T04:03:55;99891.44;;;1.05;91.33
5609;BME280;2826;51.354;9.588;2023-01-25T04:06:23;99898.41;;;1.11;91.22
5609;BME280;2826;51.354;9.588;2023-01-25T04:08:50;99891.59;;;1.10;90.79
5609;BME280;2826;51.354;9.588;2023-01-25T04:11:19;99892.19;;;1.01;91.34
5609;BME280;2826;51.354;9.588;2023-01-25T04:13:47;99890.47;;;1.00;91.30
5609;BME280;2826;51.354;9.588;2023-01-25T04:16:15;99893.13;;;1.04;91.40
5609;BME280;2826;51.354;9.588;2023-01-25T04:19:12;99894.84;;;1.04;91.37
5609;BME280;2826;51.354;9.588;2023-01-25T04:21:40;99891.50;;;1.07;91.85
5609;BME280;2826;51.354;9.588;2023-01-25T04:24:07;99889.03;;;1.10;91.67
5609;BME280;2826;51.354;9.588;2023-01-25T04:26:37;99881.38;;;1.11;91.63
5609;BME280;2826;51.354;9.588;2023-01-25T04:29:04;99880.44;;;1.08;91.33
5609;BME280;2826;51.354;9.588;2023-01-25T04:31:31;99880.47;;;1.09;91.22
5609;BME280;2826;51.354;9.588;2023-01-25T04:33:58;99878.75;;;1.08;91.37
5609;BME280;2826;51.354;9.588;2023-01-25T04:36:25;99871.28;;;1.16;91.40
5609;BME280;2826;51.354;9.588;2023-01-25T04:38:52;99869.47;;;1.12;90.91
5609;BME280;2826;51.354;9.588;2023-01-25T04:41:20;99862.50;;;1.06;91.39
5609;BME280;2826;51.354;9.588;2023-01-25T04:43:52;99873.69;;;1.10;90.92
5609;BME280;2826;51.354;9.588;2023-01-25T04:46:19;99875.38;;;1.09;91.01
5609;BME280;2826;51.354;9.588;2023-01-25T04:48:46;99866.63;;;1.01;90.98
5609;BME280;2826;51.354;9.588;2023-01-25T04:51:14;99864.81;;;0.97;91.40
5609;BME280;2826;51.354;9.588;2023-01-25T04:53:42;99863.06;;;0.94;91.33
5609;BME280;2826;51.354;9.588;2023-01-25T04:56:11;99860.44;;;0.93;91.56
5609;BME280;2826;51.354;9.588;2023-01-25T04:58:46;99865.47;;;0.89;91.70
5609;BME280;2826;51.354;9.588;2023-01-25T05:01:13;99861.19;;;0.88;91.94
5609;BME280;2826;51.354;9.588;2023-01-25T05:03:39;99857.00;;;0.90;92.13
5609;BME280;2826;51.354;9.588;2023-01-25T05:06:13;99863.75;;;0.88;91.92
5609;BME280;2826;51.354;9.588;2023-01-25T05:08:40;99850.97;;;0.88;92.00
5609;BME280;2826;51.354;9.588;2023-01-25T05:11:07;99856.03;;;0.87;91.95
5609;BME280;2826;51.354;9.588;2023-01-25T05:13:41;99860.41;;;0.91;92.10
5609;BME280;2826;51.354;9.588;2023-01-25T05:16:22;99856.22;;;0.93;91.96
5609;BME280;2826;51.354;9.588;2023-01-25T05:18:49;99857.06;;;0.94;91.85
5609;BME280;2826;51.354;9.588;2023-01-25T05:21:20;99846.00;;;0.93;91.89
5609;BME280;2826;51.354;9.588;2023-01-25T05:24:00;99850.19;;;0.91;91.73
5609;BME280;2826;51.354;9.588;2023-01-25T05:26:28;99850.28;;;0.94;92.04
5609;BME280;2826;51.354;9.588;2023-01-25T05:29:14;99855.34;;;0.93;92.29
5609;BME280;2826;51.354;9.588;2023-01-25T05:31:50;99848.63;;;0.96;92.29
5609;BME280;2826;51.354;9.588;2023-01-25T05:34:17;99846.84;;;0.92;91.85
5609;BME280;2826;51.354;9.588;2023-01-25T05:36:44;99839.13;;;0.90;91.97
5609;BME280;2826;51.354;9.588;2023-01-25T05:39:10;99840.72;;;0.87;92.23
5609;BME280;2826;51.354;9.588;2023-01-25T05:41:37;99846.75;;;0.89;92.12
5609;BME280;2826;51.354;9.588;2023-01-25T05:44:04;99836.63;;;0.92;92.56
5609;BME280;2826;51.354;9.588;2023-01-25T05:46:34;99846.84;;;0.92;92.26
5609;BME280;2826;51.354;9.588;2023-01-25T05:49:01;99844.19;;;0.89;92.28
5609;BME280;2826;51.354;9.588;2023-01-25T05:51:30;99843.31;;;0.88;92.49
5609;BME280;2826;51.354;9.588;2023-01-25T05:53:57;99839.16;;;0.92;92.21
5609;BME280;2826;51.354;9.588;2023-01-25T05:56:24;99846.75;;;0.89;92.33
5609;BME280;2826;51.354;9.588;2023-01-25T05:58:52;99841.72;;;0.92;91.97
5609;BME280;2826;51.354;9.588;2023-01-25T06:01:19;99847.69;;;0.93;92.39
5609;BME280;2826;51.354;9.588;2023-01-25T06:03:52;99832.25;;;0.88;92.40
5609;BME280;2826;51.354;9.588;2023-01-25T06:06:21;99839.78;;;0.83;92.19
5609;BME280;2826;51.354;9.588;2023-01-25T06:08:48;99829.56;;;0.83;91.91
5609;BME280;2826;51.354;9.588;2023-01-25T06:11:17;99832.81;;;0.77;92.38
5609;BME280;2826;51.354;9.588;2023-01-25T06:13:45;99808.56;;;0.61;92.50
5609;BME280;2826;51.354;9.588;2023-01-25T06:16:13;99831.91;;;0.75;92.77
5609;BME280;2826;51.354;9.588;2023-01-25T06:18:39;99830.19;;;0.74;93.10
5609;BME280;2826;51.354;9.588;2023-01-25T06:21:22;99831.13;;;0.78;93.00
5609;BME280;2826;51.354;9.588;2023-01-25T06:23:49;99825.31;;;0.84;92.78
5609;BME280;2826;51.354;9.588;2023-01-25T06:26:15;99827.84;;;0.82;93.09
5609;BME280;2826;51.354;9.588;2023-01-25T06:28:42;99832.13;;;0.83;92.83
5609;BME280;2826;51.354;9.588;2023-01-25T06:31:10;99815.72;;;0.75;92.63
5609;BME280;2826;51.354;9.588;2023-01-25T06:33:37;99808.84;;;0.72;92.62
5609;BME280;2826;51.354;9.588;2023-01-25T06:36:05;99832.16;;;0.85;92.72
5609;BME280;2826;51.354;9.588;2023-01-25T06:38:34;99829.66;;;0.86;92.84
5609;BME280;2826;51.354;9.588;2023-01-25T06:41:00;99837.34;;;0.88;92.80
5609;BME280;2826;51.354;9.588;2023-01-25T06:43:28;99832.16;;;0.85;92.68
5609;BME280;2826;51.354;9.588;2023-01-25T06:45:59;99827.94;;;0.87;92.70
5609;BME280;2826;51.354;9.588;2023-01-25T06:48:26;99833.00;;;0.84;92.50
5609;BME280;2826;51.354;9.588;2023-01-25T06:50:54;99829.47;;;0.80;92.65
5609;BME280;2826;51.354;9.588;2023-01-25T06:53:21;99832.94;;;0.82;92.68
5609;BME280;2826;51.354;9.588;2023-01-25T06:55:55;99827.69;;;0.77;92.83
5609;BME280;2826;51.354;9.588;2023-01-25T06:58:22;99826.06;;;0.80;92.60
5609;BME280;2826;51.354;9.588;2023-01-25T07:00:48;99824.44;;;0.83;92.79
5609;BME280;2826;51.354;9.588;2023-01-25T07:03:15;99798.63;;;0.72;92.79
5609;BME280;2826;51.354;9.588;2023-01-25T07:05:41;99815.13;;;0.84;92.94
5609;BME280;2826;51.354;9.588;2023-01-25T07:08:08;99808.25;;;0.83;92.61
5609;BME280;2826;51.354;9.588;2023-01-25T07:10:34;99808.25;;;0.83;92.70
5609;BME280;2826;51.354;9.588;2023-01-25T07:13:02;99814.13;;;0.78;92.59
5609;BME280;2826;51.354;9.588;2023-01-25T07:15:29;99817.41;;;0.74;92.32
5609;BME280;2826;51.354;9.588;2023-01-25T07:17:55;99813.06;;;0.70;92.35
5609;BME280;2826;51.354;9.588;2023-01-25T07:20:22;99807.03;;;0.68;92.14
5609;BME280;2826;51.354;9.588;2023-01-25T07:22:49;99812.13;;;0.68;92.34
5609;BME280;2826;51.354;9.588;2023-01-25T07:25:15;99810.38;;;0.65;92.01
5609;BME280;2826;51.354;9.588;2023-01-25T07:27:42;99816.16;;;0.60;92.67
5609;BME280;2826;51.354;9.588;2023-01-25T07:30:10;99812.66;;;0.56;92.83
5609;BME280;2826;51.354;9.588;2023-01-25T07:32:37;99810.94;;;0.55;93.12
5609;BME280;2826;51.354;9.588;2023-01-25T07:35:04;99807.59;;;0.58;93.07
5609;BME280;2826;51.354;9.588;2023-01-25T07:37:31;99799.84;;;0.55;93.15
5609;BME280;2826;51.354;9.588;2023-01-25T07:39:58;99803.28;;;0.55;92.76
5609;BME280;2826;51.354;9.588;2023-01-25T07:42:25;99802.47;;;0.56;92.87
5609;BME280;2826;51.354;9.588;2023-01-25T07:45:10;99804.22;;;0.59;93.34
5609;BME280;2826;51.354;9.588;2023-01-25T07:47:37;99806.03;;;0.63;92.99
5609;BME280;2826;51.354;9.588;2023-01-25T07:50:04;99805.25;;;0.65;93.07
5609;BME280;2826;51.354;9.588;2023-01-25T07:52:31;99797.66;;;0.67;93.33
5609;BME280;2826;51.354;9.588;2023-01-25T07:54:57;99788.25;;;0.66;93.37
5609;BME280;2826;51.354;9.588;2023-01-25T07:57:24;99799.22;;;0.62;92.75
5609;BME280;2826;51.354;9.588;2023-01-25T07:59:52;99799.25;;;0.63;93.10
5609;BME280;2826;51.354;9.588;2023-01-25T08:02:21;99796.75;;;0.67;92.87
5609;BME280;2826;51.354;9.588;2023-01-25T08:04:47;99799.38;;;0.68;93.08
5609;BME280;2826;51.354;9.588;2023-01-25T08:07:15;99799.50;;;0.73;92.78
5609;BME280;2826;51.354;9.588;2023-01-25T08:09:42;99801.28;;;0.75;92.72
5609;BME280;2826;51.354;9.588;2023-01-25T08:12:08;99795.25;;;0.73;92.71
5609;BME280;2826;51.354;9.588;2023-01-25T08:14:35;99803.16;;;0.83;92.18
5609;BME280;2826;51.354;9.588;2023-01-25T08:17:03;99802.44;;;0.88;92.07
5609;BME280;2826;51.354;9.588;2023-01-25T08:19:31;99796.50;;;0.89;91.60
5609;BME280;2826;51.354;9.588;2023-01-25T08:21:57;99789.56;;;0.84;91.70
5609;BME280;2826;51.354;9.588;2023-01-25T08:24:24;99798.13;;;0.86;91.32
5609;BME280;2826;51.354;9.588;2023-01-25T08:26:50;99799.00;;;0.86;91.13
5609;BME280;2826;51.354;9.588;2023-01-25T08:29:17;99788.00;;;0.89;90.86
5609;BME280;2826;51.354;9.588;2023-01-25T08:31:44;99786.88;;;0.79;90.59
5609;BME280;2826;51.354;9.588;2023-01-25T08:34:11;99789.53;;;0.82;91.31
5609;BME280;2826;51.354;9.588;2023-01-25T08:36:40;99788.78;;;0.86;91.36
5609;BME280;2826;51.354;9.588;2023-01-25T08:39:09;99768.97;;;0.77;91.17
5609;BME280;2826;51.354;9.588;2023-01-25T08:41:36;99790.59;;;0.90;91.01
5609;BME280;2826;51.354;9.588;2023-01-25T08:44:03;99786.41;;;0.94;90.99
5609;BME280;2826;51.354;9.588;2023-01-25T08:46:31;99788.84;;;0.89;90.87
5609;BME280;2826;51.354;9.588;2023-01-25T08:48:59;99782.09;;;0.91;91.04
5609;BME280;2826;51.354;9.588;2023-01-25T08:51:26;99776.94;;;0.90;90.61
5609;BME280;2826;51.354;9.588;2023-01-25T08:53:54;99782.97;;;0.92;91.16
5609;BME280;2826;51.354;9.588;2023-01-25T08:56:22;99783.06;;;0.97;91.07
5609;BME280;2826;51.354;9.588;2023-01-25T08:58:49;99786.56;;;1.00;90.75
5609;BME280;2826;51.354;9.588;2023-01-25T09:01:17;99775.41;;;0.97;90.36
5609;BME280;2826;51.354;9.588;2023-01-25T09:03:46;99774.59;;;0.98;89.99
5609;BME280;2826;51.354;9.588;2023-01-25T09:06:13;99769.25;;;0.88;89.81
5609;BME280;2826;51.354;9.588;2023-01-25T09:08:41;99769.88;;;0.80;90.65
5609;BME280;2826;51.354;9.588;2023-01-25T09:11:12;99764.72;;;0.78;90.86
5609;BME280;2826;51.354;9.588;2023-01-25T09:13:39;99767.34;;;0.80;91.12
5609;BME280;2826;51.354;9.588;2023-01-25T09:16:09;99762.47;;;0.89;90.50
5609;BME280;2826;51.354;9.588;2023-01-25T09:18:37;99765.09;;;0.92;89.35
5609;BME280;2826;51.354;9.588;2023-01-25T09:21:05;99769.41;;;0.95;89.57
5609;BME280;2826;51.354;9.588;2023-01-25T09:23:32;99771.78;;;0.88;89.76
5609;BME280;2826;51.354;9.588;2023-01-25T09:25:59;99772.66;;;0.89;89.24
5609;BME280;2826;51.354;9.588;2023-01-25T09:28:29;99769.31;;;0.91;89.32
5609;BME280;2826;51.354;9.588;2023-01-25T09:30:56;99767.59;;;0.90;89.34
5609;BME280;2826;51.354;9.588;2023-01-25T09:33:37;99760.03;;;0.95;88.91
5609;BME280;2826;51.354;9.588;2023-01-25T09:36:04;99767.66;;;0.92;88.75
5609;BME280;2826;51.354;9.588;2023-01-25T09:38:32;99758.97;;;0.87;88.71
5609;BME280;2826;51.354;9.588;2023-01-25T09:41:10;99759.94;;;0.90;89.33
5609;BME280;2826;51.354;9.588;2023-01-25T09:44:00;99744.72;;;0.95;89.30
5609;BME280;2826;51.354;9.588;2023-01-25T09:46:38;99747.44;;;1.01;89.35
5609;BME280;2826;51.354;9.588;2023-01-25T09:49:18;99751.44;;;0.91;89.99
5609;BME280;2826;51.354;9.588;2023-01-25T09:52:00;99748.19;;;0.97;89.59
5609;BME280;2826;51.354;9.588;2023-01-25T09:54:28;99744.72;;;0.95;89.05
5609;BME280;2826;51.354;9.588;2023-01-25T09:56:57;99744.06;;;1.02;89.15
5609;BME280;2826;51.354;9.588;2023-01-25T09:59:27;99710.59;;;0.91;89.07
5609;BME280;2826;51.354;9.588;2023-01-25T10:01:59;99734.94;;;1.12;88.74
5609;BME280;2826;51.354;9.588;2023-01-25T10:04:29;99733.53;;;1.25;88.67
5609;BME280;2826;51.354;9.588;2023-01-25T10:07:05;99726.88;;;1.32;88.37
5609;BME280;2826;51.354;9.588;2023-01-25T10:09:39;99724.47;;;1.40;88.23
5609;BME280;2826;51.354;9.588;2023-01-25T10:12:14;99728.75;;;1.41;87.91
5609;BME280;2826;51.354;9.588;2023-01-25T10:14:43;99725.38;;;1.42;87.65
5609;BME280;2826;51.354;9.588;2023-01-25T10:17:12;99721.16;;;1.44;87.68
5609;BME280;2826;51.354;9.588;2023-01-25T10:19:52;99714.31;;;1.43;87.30
5609;BME280;2826;51.354;9.588;2023-01-25T10:22:22;99718.88;;;1.56;87.60
5609;BME280;2826;51.354;9.588;2023-01-25T10:24:59;99716.31;;;1.56;87.05
5609;BME280;2826;51.354;9.588;2023-01-25T10:27:36;99706.09;;;1.56;86.83
5609;BME280;2826;51.354;9.588;2023-01-25T10:30:19;99712.88;;;1.54;86.23
5609;BME280;2826;51.354;9.588;2023-01-25T10:32:48;99708.72;;;1.60;86.49
5609;BME280;2826;51.354;9.588;2023-01-25T10:35:18;99706.22;;;1.63;86.53
5609;BME280;2826;51.354;9.588;2023-01-25T10:37:46;99702.50;;;1.48;86.17
5609;BME280;2826;51.354;9.588;2023-01-25T10:40:17;99689.84;;;1.53;86.49
5609;BME280;2826;51.354;9.588;2023-01-25T10:42:49;99683.78;;;1.49;86.58
5609;BME280;2826;51.354;9.588;2023-01-25T10:45:18;99687.25;;;1.51;86.53
5609;BME280;2826;51.354;9.588;2023-01-25T10:47:47;99688.13;;;1.53;86.33
5609;BME280;2826;51.354;9.588;2023-01-25T10:50:41;99692.19;;;1.45;85.48
5609;BME280;2826;51.354;9.588;2023-01-25T10:53:29;99671.50;;;1.34;85.85
5609;BME280;2826;51.354;9.588;2023-01-25T10:56:15;99663.03;;;1.35;86.86
5609;BME280;2826;51.354;9.588;2023-01-25T10:58:46;99664.00;;;1.40;87.08
5609;BME280;2826;51.354;9.588;2023-01-25T11:01:28;99648.69;;;1.42;87.27
5609;BME280;2826;51.354;9.588;2023-01-25T11:03:55;99659.22;;;1.58;87.00
5609;BME280;2826;51.354;9.588;2023-01-25T11:06:32;99659.38;;;1.65;86.99
5609;BME280;2826;51.354;9.588;2023-01-25T11:08:59;99647.53;;;1.69;86.37
5609;BME280;2826;51.354;9.588;2023-01-25T11:11:31;99628.59;;;1.59;84.88
5609;BME280;2826;51.354;9.588;2023-01-25T11:14:00;99642.47;;;1.71;85.28
5609;BME280;2826;51.354;9.588;2023-01-25T11:16:36;99635.56;;;1.66;84.84
5609;BME280;2826;51.354;9.588;2023-01-25T11:19:23;99636.28;;;1.61;85.55
5609;BME280;2826;51.354;9.588;2023-01-25T11:21:51;99626.06;;;1.61;85.35
5609;BME280;2826;51.354;9.588;2023-01-25T11:24:17;99618.53;;;1.68;85.88
5609;BME280;2826;51.354;9.588;2023-01-25T11:26:44;99618.31;;;1.58;84.87
5609;BME280;2826;51.354;9.588;2023-01-25T11:29:14;99610.81;;;1.64;83.96
5609;BME280;2826;51.354;9.588;2023-01-25T11:31:45;99607.19;;;1.54;84.98
5609;BME280;2826;51.354;9.588;2023-01-25T11:34:14;99595.13;;;1.48;85.26
5609;BME280;2826;51.354;9.588;2023-01-25T11:36:50;99589.09;;;1.45;85.22
5609;BME280;2826;51.354;9.588;2023-01-25T11:39:32;99538.00;;;1.04;84.98
5609;BME280;2826;51.354;9.588;2023-01-25T11:42:11;99588.22;;;1.44;85.69
5609;BME280;2826;51.354;9.588;2023-01-25T11:47:50;99576.31;;;1.45;85.40
5609;BME280;2826;51.354;9.588;2023-01-25T11:50:23;99569.72;;;1.54;84.91
5609;BME280;2826;51.354;9.588;2023-01-25T11:55:48;99556.94;;;1.56;84.38
5609;BME280;2826;51.354;9.588;2023-01-25T11:58:30;99557.13;;;1.67;84.58
5609;BME280;2826;51.354;9.588;2023-01-25T12:01:08;99543.56;;;1.71;84.54
5609;BME280;2826;51.354;9.588;2023-01-25T12:04:05;99539.25;;;1.67;83.76
5609;BME280;2826;51.354;9.588;2023-01-25T12:06:44;99540.78;;;1.59;83.89
5609;BME280;2826;51.354;9.588;2023-01-25T12:09:23;99532.34;;;1.61;84.21
5609;BME280;2826;51.354;9.588;2023-01-25T12:12:13;99529.56;;;1.52;84.01
5609;BME280;2826;51.354;9.588;2023-01-25T12:14:53;99523.72;;;1.58;84.24
5609;BME280;2826;51.354;9.588;2023-01-25T12:17:31;99518.38;;;1.43;84.51
5609;BME280;2826;51.354;9.588;2023-01-25T12:20:27;99514.09;;;1.44;85.38
5609;BME280;2826;51.354;9.588;2023-01-25T12:23:22;99507.56;;;1.60;84.84
5609;BME280;2826;51.354;9.588;2023-01-25T12:26:03;99494.06;;;1.66;85.28
5609;BME280;2826;51.354;9.588;2023-01-25T12:28:35;99495.84;;;1.72;84.98
5609;BME280;2826;51.354;9.588;2023-01-25T12:31:11;99488.22;;;1.73;83.50
5609;BME280;2826;51.354;9.588;2023-01-25T12:33:42;99487.91;;;1.56;84.48
5609;BME280;2826;51.354;9.588;2023-01-25T12:36:16;99483.66;;;1.56;84.78
5609;BME280;2826;51.354;9.588;2023-01-25T12:38:49;99478.44;;;1.52;85.11
5609;BME280;2826;51.354;9.588;2023-01-25T12:41:26;99464.88;;;1.54;85.28
5609;BME280;2826;51.354;9.588;2023-01-25T12:46:41;99464.06;;;1.59;85.72
5609;BME280;2826;51.354;9.588;2023-01-25T12:49:16;99450.34;;;1.53;85.45
5609;BME280;2826;51.354;9.588;2023-01-25T12:51:46;99423.66;;;1.37;85.45
5609;BME280;2826;51.354;9.588;2023-01-25T12:54:18;99450.25;;;1.47;85.06
5609;BME280;2826;51.354;9.588;2023-01-25T12:56:53;99439.84;;;1.36;85.69
5609;BME280;2826;51.354;9.588;2023-01-25T12:59:27;99433.84;;;1.36;86.05
5609;BME280;2826;51.354;9.588;2023-01-25T13:02:02;99428.84;;;1.40;86.30
5609;BME280;2826;51.354;9.588;2023-01-25T13:04:52;99423.56;;;1.31;86.39
5609;BME280;2826;51.354;9.588;2023-01-25T13:07:29;99417.47;;;1.24;86.78
5609;BME280;2826;51.354;9.588;2023-01-25T13:10:03;99408.09;;;1.25;86.83
5609;BME280;2826;51.354;9.588;2023-01-25T13:12:49;99407.97;;;1.17;86.93
5609;BME280;2826;51.354;9.588;2023-01-25T13:15:46;99405.19;;;1.04;87.57
5609;BME280;2826;51.354;9.588;2023-01-25T13:18:35;99398.28;;;1.00;88.00
5609;BME280;2826;51.354;9.588;2023-01-25T13:21:03;99395.72;;;1.00;88.17
5609;BME280;2826;51.354;9.588;2023-01-25T13:23:33;99392.47;;;1.08;88.53
5609;BME280;2826;51.354;9.588;2023-01-25T13:26:37;99377.94;;;1.05;88.83
5609;BME280;2826;51.354;9.588;2023-01-25T13:38:33;99366.41;;;1.26;87.72
5609;BME280;2826;51.354;9.588;2023-01-25T13:41:11;99358.75;;;1.26;88.13
5609;BME280;2826;51.354;9.588;2023-01-25T13:43:42;99328.69;;;1.14;88.25
5609;BME280;2826;51.354;9.588;2023-01-25T13:46:12;99338.22;;;1.23;88.36
5609;BME280;2826;51.354;9.588;2023-01-25T13:48:46;99351.06;;;1.27;87.82
5609;BME280;2826;51.354;9.588;2023-01-25T13:51:18;99352.66;;;1.21;88.00
5609;BME280;2826;51.354;9.588;2023-01-25T13:53:54;99347.59;;;1.22;87.25
5609;BME280;2826;51.354;9.588;2023-01-25T13:56:26;99338.91;;;1.14;87.91
5609;BME280;2826;51.354;9.588;2023-01-25T13:58:53;99331.13;;;1.06;88.02
5609;BME280;2826;51.354;9.588;2023-01-25T14:01:20;99328.50;;;1.01;88.43
5609;BME280;2826;51.354;9.588;2023-01-25T14:03:49;99330.34;;;1.10;88.23
5609;BME280;2826;51.354;9.588;2023-01-25T14:06:19;99329.41;;;1.05;88.51
5609;BME280;2826;51.354;9.588;2023-01-25T14:08:46;99333.69;;;1.06;88.62